Time;durP1;ratioP1;P1;durP2;ratioP2;P2;SDS_P1;SDS_P2;PMS_P1;PMS_P2;Temp;Humidity;BMP_temperature;BMP_pressure;BME280_temperature;BME280_humidity;BME280_pressure;Samples;Min_cycle;Max_cycle;Signal;HPM_P1;HPM_P2
2022/01/29 00:00:28;;;;;;;29.92;12.35;;;;;;;3.64;58.38;102299.31;5001516;28;20068;-69
2022/01/29 00:02:53;;;;;;;39.20;12.73;;;;;;;3.81;57.83;102291.75;5007954;28;20091;-70
2022/01/29 00:05:19;;;;;;;25.63;12.18;;;;;;;3.02;60.25;102291.56;5001913;28;20038;-71
2022/01/29 00:07:44;;;;;;;26.60;12.15;;;;;;;3.33;59.55;102285.16;5008051;28;20135;-71
2022/01/29 00:10:11;;;;;;;29.52;11.80;;;;;;;3.58;58.54;102287.19;5010632;28;20095;-73
2022/01/29 00:12:37;;;;;;;25.20;12.60;;;;;;;3.22;59.79;102281.53;5030928;28;20032;-74
2022/01/29 00:15:04;;;;;;;30.50;12.63;;;;;;;3.45;59.30;102271.50;5022892;28;20103;-72
2022/01/29 00:17:29;;;;;;;31.67;12.30;;;;;;;3.51;59.01;102262.09;5021880;28;20033;-73
2022/01/29 00:19:55;;;;;;;29.17;11.25;;;;;;;2.73;61.32;102248.13;5022399;28;20033;-71
2022/01/29 00:22:21;;;;;;;33.03;13.70;;;;;;;3.84;58.09;102254.72;5019960;28;20102;-72
2022/01/29 00:24:46;;;;;;;28.60;12.45;;;;;;;3.66;58.74;102255.38;5023387;28;20072;-73
2022/01/29 00:27:12;;;;;;;35.00;13.20;;;;;;;3.58;59.04;102247.53;5023133;28;20116;-72
2022/01/29 00:29:39;;;;;;;25.33;11.98;;;;;;;4.05;57.82;102238.50;5021591;28;20161;-72
2022/01/29 00:32:09;;;;;;;26.88;11.15;;;;;;;3.91;57.87;102247.00;5022637;28;20072;-72
2022/01/29 00:34:36;;;;;;;27.30;11.60;;;;;;;3.22;60.40;102238.44;5020201;28;20088;-71
2022/01/29 00:37:01;;;;;;;30.08;12.20;;;;;;;3.23;60.84;102234.19;5023045;28;20053;-72
2022/01/29 00:39:27;;;;;;;27.77;12.88;;;;;;;3.01;61.05;102227.88;5020710;28;20035;-72
2022/01/29 00:41:53;;;;;;;31.05;13.13;;;;;;;3.85;58.99;102221.13;5036776;28;20029;-71
2022/01/29 00:44:18;;;;;;;35.30;12.65;;;;;;;3.96;58.99;102224.66;5024852;28;20034;-72
2022/01/29 00:46:44;;;;;;;29.77;11.98;;;;;;;3.39;60.48;102215.44;5011649;28;20532;-72
2022/01/29 00:49:11;;;;;;;32.63;12.65;;;;;;;3.34;60.73;102212.81;5022112;28;20489;-72
2022/01/29 00:51:38;;;;;;;37.60;12.40;;;;;;;3.38;60.72;102204.25;5022577;28;20043;-72
2022/01/29 00:54:03;;;;;;;45.42;14.55;;;;;;;3.26;61.59;102198.03;5006385;28;20045;-72
2022/01/29 00:56:29;;;;;;;31.45;12.23;;;;;;;3.55;60.62;102193.22;5025560;28;20033;-71
2022/01/29 00:58:55;;;;;;;37.63;13.50;;;;;;;3.74;59.80;102202.03;5026849;28;20738;-73
2022/01/29 01:01:20;;;;;;;40.60;13.07;;;;;;;3.29;61.81;102188.63;5028106;28;20037;-73
2022/01/29 01:03:46;;;;;;;38.08;14.38;;;;;;;3.01;61.99;102196.88;5004433;28;20025;-73
2022/01/29 01:06:11;;;;;;;28.63;12.40;;;;;;;3.70;60.62;102184.75;5014152;28;20762;-74
2022/01/29 01:08:37;;;;;;;29.10;12.73;;;;;;;3.54;61.25;102181.16;5005404;28;20052;-73
2022/01/29 01:11:04;;;;;;;33.35;13.35;;;;;;;3.99;59.34;102177.25;5028201;28;20034;-73
2022/01/29 01:13:33;;;;;;;29.40;13.25;;;;;;;3.31;61.65;102168.81;5027023;28;20537;-72
2022/01/29 01:15:59;;;;;;;35.83;12.85;;;;;;;3.63;60.30;102152.78;5031369;28;20037;-71
2022/01/29 01:18:25;;;;;;;31.17;12.93;;;;;;;3.56;60.78;102150.97;5023633;28;20033;-71
2022/01/29 01:20:50;;;;;;;30.73;14.07;;;;;;;3.74;60.57;102152.91;5027153;28;21364;-72
2022/01/29 01:23:16;;;;;;;29.08;13.20;;;;;;;3.59;60.83;102146.72;5024276;28;20057;-72
2022/01/29 01:25:41;;;;;;;30.10;13.98;;;;;;;3.76;60.56;102139.13;5023837;28;20622;-72
2022/01/29 01:28:07;;;;;;;25.05;12.35;;;;;;;3.29;61.53;102130.91;5025038;28;20103;-71
2022/01/29 01:30:33;;;;;;;33.17;11.93;;;;;;;3.68;60.40;102134.75;5025874;28;20043;-71
2022/01/29 01:33:01;;;;;;;30.85;11.93;;;;;;;3.82;60.12;102130.53;5009425;28;20049;-74
2022/01/29 01:35:43;;;;;;;32.72;13.10;;;;;;;3.63;60.75;102132.13;4993224;28;20068;-74
2022/01/29 01:40:35;;;;;;;26.23;12.65;;;;;;;3.62;61.31;102120.03;5012704;28;20069;-75
2022/01/29 01:43:01;;;;;;;29.48;12.80;;;;;;;3.67;61.09;102122.66;5008674;28;20168;-74
2022/01/29 01:45:30;;;;;;;29.67;12.65;;;;;;;3.90;60.82;102121.13;5005637;28;20128;-75
2022/01/29 01:47:56;;;;;;;33.65;13.48;;;;;;;3.37;62.33;102126.69;5008518;28;20853;-75
2022/01/29 01:50:22;;;;;;;27.83;12.55;;;;;;;4.01;60.25;102124.66;5006407;28;20037;-74
2022/01/29 01:52:49;;;;;;;25.23;12.40;;;;;;;3.72;61.07;102121.00;5014796;28;20052;-75
2022/01/29 01:55:16;;;;;;;34.70;13.75;;;;;;;3.75;61.19;102110.66;5030483;28;20075;-76
2022/01/29 01:57:42;;;;;;;30.52;13.35;;;;;;;4.13;59.97;102113.53;5024864;28;20354;-74
2022/01/29 02:00:08;;;;;;;23.60;12.98;;;;;;;4.18;59.70;102104.06;5027933;28;20786;-74
2022/01/29 02:02:42;;;;;;;27.88;12.90;;;;;;;4.49;58.95;102090.44;5025307;28;20041;-74
2022/01/29 02:05:09;;;;;;;29.88;13.23;;;;;;;4.15;59.97;102085.09;5027551;28;20029;-74
2022/01/29 02:07:35;;;;;;;28.25;12.52;;;;;;;4.41;59.28;102083.50;5026138;28;20199;-72
2022/01/29 02:10:01;;;;;;;21.10;11.13;;;;;;;4.63;58.54;102078.41;5033627;28;20045;-72
2022/01/29 02:12:30;;;;;;;22.98;11.13;;;;;;;4.25;60.03;102076.50;5025642;28;20051;-73
2022/01/29 02:14:59;;;;;;;34.65;13.75;;;;;;;4.19;60.11;102066.13;5025193;28;20418;-72
2022/01/29 02:17:25;;;;;;;23.55;11.65;;;;;;;4.06;60.48;102066.91;5027155;28;20033;-73
2022/01/29 02:19:50;;;;;;;28.65;11.60;;;;;;;3.64;62.49;102055.41;5024856;28;20043;-73
2022/01/29 02:22:16;;;;;;;29.02;12.13;;;;;;;4.12;60.84;102048.81;5024657;28;20073;-72
2022/01/29 02:24:41;;;;;;;28.08;11.90;;;;;;;3.99;61.94;102048.75;5025662;28;20112;-71
2022/01/29 02:27:07;;;;;;;28.92;12.30;;;;;;;3.62;62.63;102026.09;5024251;28;20095;-72
2022/01/29 02:29:34;;;;;;;37.00;12.10;;;;;;;3.83;62.47;102036.59;5025286;28;20048;-74
2022/01/29 02:31:59;;;;;;;34.22;10.98;;;;;;;3.51;63.18;102039.78;5025381;28;20859;-73
2022/01/29 02:34:25;;;;;;;28.02;11.77;;;;;;;4.02;62.25;102022.91;5027452;28;20049;-74
2022/01/29 02:36:52;;;;;;;31.13;12.25;;;;;;;4.21;61.55;102025.59;5028834;28;20048;-75
2022/01/29 02:39:19;;;;;;;25.63;10.93;;;;;;;4.11;61.76;102000.53;5017975;28;20890;-73
2022/01/29 02:41:45;;;;;;;25.42;12.00;;;;;;;4.07;62.12;102003.94;5013418;28;20029;-74
2022/01/29 02:44:16;;;;;;;25.42;12.02;;;;;;;3.85;62.98;102005.53;5024347;28;20766;-73
2022/01/29 02:46:48;;;;;;;27.35;11.90;;;;;;;3.96;62.49;102007.38;5039745;28;20108;-74
2022/01/29 02:49:22;;;;;;;28.05;11.73;;;;;;;4.30;61.41;101997.19;5032271;28;20489;-73
2022/01/29 02:51:50;;;;;;;22.10;11.45;;;;;;;4.16;61.74;101999.72;5016983;28;20033;-75
2022/01/29 02:54:16;;;;;;;31.85;12.02;;;;;;;3.79;63.17;101988.28;5013483;28;20752;-73
2022/01/29 02:56:42;;;;;;;31.05;11.55;;;;;;;4.16;62.21;101988.47;5009580;28;20233;-74
2022/01/29 02:59:08;;;;;;;22.95;10.13;;;;;;;4.50;60.95;101986.00;5024094;28;20029;-74
2022/01/29 03:01:34;;;;;;;24.38;10.98;;;;;;;4.38;61.03;101968.72;5027941;28;20059;-74
2022/01/29 03:04:00;;;;;;;23.67;11.52;;;;;;;4.67;59.78;101966.22;5025689;28;20098;-74
2022/01/29 03:06:26;;;;;;;25.85;10.90;;;;;;;4.84;59.52;101979.22;5025682;28;20180;-74
2022/01/29 03:08:52;;;;;;;25.00;11.93;;;;;;;4.69;59.57;101967.06;5022717;28;20061;-74
2022/01/29 03:11:19;;;;;;;25.98;11.05;;;;;;;3.93;62.36;101954.72;5031496;28;20038;-74
2022/01/29 03:13:46;;;;;;;21.38;9.27;;;;;;;4.68;60.04;101955.00;5031485;28;20037;-72
2022/01/29 03:16:12;;;;;;;26.92;11.10;;;;;;;4.93;59.82;101952.47;5022449;28;20506;-74
2022/01/29 03:18:37;;;;;;;33.10;11.27;;;;;;;4.52;60.54;101955.81;5024922;28;20037;-74
2022/01/29 03:21:03;;;;;;;23.50;9.80;;;;;;;4.52;60.77;101950.63;5025704;28;20036;-73
2022/01/29 03:23:28;;;;;;;22.38;10.23;;;;;;;4.24;61.50;101944.53;5027374;28;20052;-74
2022/01/29 03:25:54;;;;;;;21.50;10.02;;;;;;;5.05;59.20;101935.19;5031645;28;20025;-74
2022/01/29 03:28:20;;;;;;;17.88;9.35;;;;;;;4.17;61.87;101933.28;5025196;28;20562;-74
2022/01/29 03:30:46;;;;;;;22.90;9.15;;;;;;;4.62;61.01;101931.69;5023755;28;20028;-74
2022/01/29 03:33:12;;;;;;;26.17;10.18;;;;;;;4.87;59.63;101927.38;5023366;28;20608;-74
2022/01/29 03:35:37;;;;;;;30.90;11.30;;;;;;;4.50;61.11;101918.69;5016301;28;20132;-74
2022/01/29 03:38:04;;;;;;;29.48;10.73;;;;;;;4.78;60.30;101928.25;5014577;28;20044;-73
2022/01/29 03:40:31;;;;;;;27.65;10.13;;;;;;;4.54;61.04;101923.91;5029667;28;20037;-73
2022/01/29 03:43:09;;;;;;;23.63;9.95;;;;;;;5.12;59.49;101920.50;5021980;28;20110;-73
2022/01/29 03:45:34;;;;;;;29.83;10.93;;;;;;;4.82;59.82;101911.00;5024123;28;20082;-72
2022/01/29 03:48:00;;;;;;;28.70;9.30;;;;;;;5.18;58.95;101919.66;5010091;28;20183;-72
2022/01/29 03:50:26;;;;;;;21.58;9.65;;;;;;;4.53;60.86;101921.31;5024762;28;20080;-73
2022/01/29 03:52:51;;;;;;;26.83;9.18;;;;;;;5.35;58.43;101914.47;5022850;28;20071;-72
2022/01/29 03:55:17;;;;;;;24.25;10.02;;;;;;;4.29;61.71;101910.03;5024816;28;20059;-72
2022/01/29 03:57:42;;;;;;;19.38;9.20;;;;;;;4.84;60.42;101904.94;5020171;28;20057;-70
2022/01/29 04:00:08;;;;;;;23.38;9.13;;;;;;;4.37;61.91;101916.09;5017624;28;20083;-72
2022/01/29 04:02:34;;;;;;;20.98;9.48;;;;;;;5.33;58.90;101916.19;5025240;28;20462;-70
2022/01/29 04:04:59;;;;;;;32.35;9.02;;;;;;;5.13;58.78;101904.09;5024822;28;20120;-72
2022/01/29 04:07:25;;;;;;;20.60;9.13;;;;;;;5.28;59.03;101907.53;5026056;28;20528;-72
2022/01/29 04:09:52;;;;;;;32.95;9.35;;;;;;;5.09;59.41;101910.16;5008145;28;20112;-73
2022/01/29 04:12:18;;;;;;;19.08;10.23;;;;;;;4.80;60.28;101900.63;5025813;28;20165;-74
2022/01/29 04:14:43;;;;;;;22.05;8.98;;;;;;;4.86;60.24;101889.41;5007183;28;20124;-74
2022/01/29 04:17:11;;;;;;;26.30;9.38;;;;;;;4.77;60.27;101885.09;5025834;28;20094;-74
2022/01/29 04:19:38;;;;;;;27.58;8.43;;;;;;;4.98;60.00;101876.47;5024921;28;20032;-72
2022/01/29 04:22:05;;;;;;;21.35;9.13;;;;;;;5.22;59.38;101875.59;5011183;28;20053;-71
2022/01/29 04:24:32;;;;;;;26.83;9.93;;;;;;;5.04;59.37;101878.22;5039822;28;20040;-72
2022/01/29 04:26:59;;;;;;;18.98;6.97;;;;;;;5.35;58.86;101880.75;5022423;28;20037;-73
2022/01/29 04:29:28;;;;;;;27.52;9.13;;;;;;;5.60;58.28;101878.97;5009846;28;20064;-73
2022/01/29 04:34:19;;;;;;;23.63;9.63;;;;;;;5.23;59.33;101892.00;5024358;28;20468;-75
2022/01/29 04:36:44;;;;;;;24.40;8.98;;;;;;;5.25;59.50;101883.34;5024077;28;21093;-73
2022/01/29 04:39:10;;;;;;;24.25;8.93;;;;;;;5.04;60.18;101870.44;5011326;28;20033;-73
2022/01/29 04:41:35;;;;;;;20.25;8.57;;;;;;;5.60;58.35;101874.63;5024948;28;20698;-73
2022/01/29 04:44:01;;;;;;;20.77;8.10;;;;;;;5.39;59.10;101872.09;5021550;28;20041;-71
2022/01/29 04:46:26;;;;;;;24.95;9.07;;;;;;;5.24;60.00;101876.44;5022116;28;20513;-73
2022/01/29 04:48:53;;;;;;;22.02;8.88;;;;;;;5.10;60.26;101878.22;4991339;28;20104;-74
2022/01/29 04:51:19;;;;;;;35.80;12.32;;;;;;;5.36;59.13;101869.50;5001488;28;20089;-74
2022/01/29 04:53:44;;;;;;;25.30;8.80;;;;;;;5.39;59.22;101874.69;5004918;28;20052;-74
2022/01/29 04:56:10;;;;;;;24.30;9.32;;;;;;;5.13;60.18;101867.81;5007594;28;20563;-72
2022/01/29 04:58:35;;;;;;;19.02;9.45;;;;;;;6.14;57.13;101857.97;5011698;28;20549;-75
2022/01/29 05:01:02;;;;;;;22.00;10.20;;;;;;;5.01;60.59;101862.63;4987747;28;20525;-74
2022/01/29 05:03:28;;;;;;;20.33;10.30;;;;;;;5.21;60.15;101849.66;5002749;28;20053;-75
2022/01/29 05:05:54;;;;;;;21.52;9.48;;;;;;;5.22;60.32;101848.81;4987361;28;20072;-75
2022/01/29 05:08:20;;;;;;;30.55;10.18;;;;;;;5.31;59.75;101840.16;5015467;28;20041;-76
2022/01/29 05:10:45;;;;;;;24.10;10.05;;;;;;;5.25;60.07;101833.25;5022771;28;20529;-77
2022/01/29 05:13:14;;;;;;;32.83;10.77;;;;;;;5.55;59.15;101824.53;5027477;28;20034;-75
2022/01/29 05:15:56;;;;;;;30.63;11.23;;;;;;;4.94;61.36;101824.66;5001317;28;20053;-76
2022/01/29 05:29:18;;;;;;;20.48;9.50;;;;;;;5.14;61.73;101822.03;5012959;28;20227;-77
2022/01/29 05:31:44;;;;;;;21.23;10.68;;;;;;;5.28;61.23;101819.41;5027410;28;20137;-76
2022/01/29 05:34:10;;;;;;;21.20;10.48;;;;;;;5.04;61.83;101821.19;5003253;28;20686;-75
2022/01/29 05:36:36;;;;;;;20.08;10.98;;;;;;;5.22;61.08;101815.13;5001372;28;20753;-75
2022/01/29 05:39:03;;;;;;;32.25;11.10;;;;;;;4.98;62.01;101821.19;5006002;28;20038;-77
2022/01/29 05:41:29;;;;;;;23.73;10.48;;;;;;;5.56;60.59;101825.38;5004227;28;20029;-74
2022/01/29 05:43:55;;;;;;;30.17;11.52;;;;;;;5.02;62.04;101826.38;5018564;28;20231;-75
2022/01/29 05:46:20;;;;;;;20.40;9.60;;;;;;;5.13;62.17;101816.00;5022994;28;20513;-74
2022/01/29 05:48:46;;;;;;;29.42;11.55;;;;;;;5.09;62.06;101809.09;5001058;28;20053;-74
2022/01/29 05:51:12;;;;;;;27.27;11.60;;;;;;;5.22;61.68;101803.00;5004776;28;20564;-75
2022/01/29 05:53:37;;;;;;;25.40;10.77;;;;;;;5.16;61.86;101805.59;5015405;28;20038;-76
2022/01/29 05:56:04;;;;;;;27.13;12.15;;;;;;;5.05;62.41;101794.41;5003571;28;20037;-75
2022/01/29 05:58:29;;;;;;;21.48;9.40;;;;;;;5.73;60.44;101796.78;4988842;28;20917;-74
2022/01/29 06:00:55;;;;;;;23.08;10.63;;;;;;;5.19;62.17;101799.56;5005595;28;20034;-74
2022/01/29 06:03:20;;;;;;;24.33;11.63;;;;;;;5.51;60.86;101790.81;5010650;28;20046;-75
2022/01/29 06:05:46;;;;;;;26.17;11.80;;;;;;;5.13;62.39;101784.91;5011761;28;20025;-76
2022/01/29 06:08:11;;;;;;;32.75;12.93;;;;;;;5.11;62.83;101780.59;5033976;28;20357;-75
2022/01/29 06:10:36;;;;;;;20.88;10.75;;;;;;;5.14;62.42;101755.50;5014691;28;20052;-76
2022/01/29 06:13:13;;;;;;;21.23;11.50;;;;;;;4.97;62.87;101745.22;5014605;28;20157;-74
2022/01/29 06:15:42;;;;;;;18.60;10.00;;;;;;;4.71;63.57;101759.91;5005683;28;20991;-73
2022/01/29 06:18:15;;;;;;;29.65;10.82;;;;;;;4.91;63.44;101734.00;5006452;28;20129;-74
2022/01/29 06:20:41;;;;;;;23.75;9.13;;;;;;;5.31;61.73;101728.69;4996492;28;20030;-74
2022/01/29 06:23:07;;;;;;;26.35;10.65;;;;;;;5.06;63.05;101713.22;5004116;28;20038;-72
2022/01/29 06:25:33;;;;;;;29.73;10.55;;;;;;;5.11;62.89;101721.00;5012500;28;20069;-73
2022/01/29 06:27:58;;;;;;;24.65;10.57;;;;;;;4.81;63.84;101710.69;5004086;28;20042;-72
2022/01/29 06:30:24;;;;;;;31.52;12.05;;;;;;;4.62;64.57;101709.00;5005779;28;20716;-73
2022/01/29 06:32:50;;;;;;;21.30;9.98;;;;;;;4.48;65.10;101700.41;5028093;28;20047;-73
2022/01/29 06:35:15;;;;;;;22.70;9.70;;;;;;;4.83;63.83;101698.59;5023362;28;20029;-72
2022/01/29 06:37:41;;;;;;;29.15;12.73;;;;;;;4.74;64.32;101706.34;5020325;28;20545;-73
2022/01/29 06:40:08;;;;;;;24.50;11.35;;;;;;;4.65;64.87;101708.97;5007251;28;20549;-72
2022/01/29 06:42:33;;;;;;;27.20;12.00;;;;;;;5.04;63.31;101714.97;5004950;28;20042;-73
2022/01/29 06:44:59;;;;;;;27.92;10.35;;;;;;;5.11;63.25;101714.06;4992676;28;20049;-73
2022/01/29 06:47:24;;;;;;;30.52;11.27;;;;;;;4.78;64.20;101715.84;5005350;28;20052;-73
2022/01/29 06:49:50;;;;;;;32.45;10.73;;;;;;;5.47;62.06;101722.56;4993909;28;21487;-73
2022/01/29 06:52:16;;;;;;;33.63;12.10;;;;;;;5.39;62.37;101721.72;5005026;28;20049;-74
2022/01/29 06:54:41;;;;;;;29.08;10.82;;;;;;;5.39;61.81;101719.13;5003944;28;20066;-73
2022/01/29 06:57:06;;;;;;;28.83;10.70;;;;;;;5.54;61.46;101734.59;4991798;28;20122;-72
2022/01/29 06:59:32;;;;;;;25.90;10.60;;;;;;;5.09;63.08;101738.28;5002567;28;20047;-74
2022/01/29 07:01:57;;;;;;;22.88;10.40;;;;;;;5.39;62.09;101720.00;5006064;28;20025;-73
2022/01/29 07:04:23;;;;;;;24.15;10.23;;;;;;;5.07;63.06;101716.69;5004344;28;20602;-72
2022/01/29 07:06:48;;;;;;;25.52;11.35;;;;;;;5.23;62.49;101727.00;5001548;28;20042;-74
2022/01/29 07:09:14;;;;;;;26.15;10.82;;;;;;;5.28;62.88;101726.09;5004134;28;20025;-72
2022/01/29 07:11:43;;;;;;;23.92;10.50;;;;;;;5.55;61.66;101725.13;5003063;28;20144;-73
2022/01/29 07:14:08;;;;;;;27.88;10.35;;;;;;;5.60;61.53;101718.16;5017951;28;20048;-72
2022/01/29 07:16:35;;;;;;;18.35;9.65;;;;;;;5.44;61.75;101722.56;5027631;28;20047;-72
2022/01/29 07:19:03;;;;;;;22.75;10.60;;;;;;;5.76;61.02;101722.38;5026071;28;20124;-72
2022/01/29 07:21:29;;;;;;;22.65;10.35;;;;;;;5.54;61.16;101721.63;5026425;28;20033;-72
2022/01/29 07:23:54;;;;;;;25.48;9.77;;;;;;;5.31;62.23;101714.00;5023946;28;20784;-73
2022/01/29 07:26:20;;;;;;;22.02;9.10;;;;;;;5.90;60.52;101711.06;5025178;28;20053;-72
2022/01/29 07:28:46;;;;;;;23.58;9.77;;;;;;;5.36;62.15;101703.59;5009924;28;20045;-73
2022/01/29 07:31:11;;;;;;;25.98;10.40;;;;;;;5.50;61.57;101706.97;5005268;28;20556;-73
2022/01/29 07:33:36;;;;;;;20.27;10.40;;;;;;;5.21;62.55;101704.50;4983916;28;20037;-71
2022/01/29 07:36:03;;;;;;;21.85;8.77;;;;;;;5.29;62.39;101713.13;5002592;28;20095;-73
2022/01/29 07:38:29;;;;;;;24.38;10.45;;;;;;;4.93;63.75;101698.59;5003865;28;20045;-71
2022/01/29 07:40:54;;;;;;;21.55;9.13;;;;;;;5.01;63.87;101705.47;5006347;28;20044;-72
2022/01/29 07:43:20;;;;;;;26.80;9.82;;;;;;;5.04;63.45;101704.59;5003421;28;20045;-75
2022/01/29 07:45:45;;;;;;;23.98;8.68;;;;;;;5.04;63.48;101697.69;5005962;28;20029;-72
2022/01/29 07:48:11;;;;;;;30.30;10.45;;;;;;;5.33;62.66;101688.91;5001320;28;20857;-73
2022/01/29 07:50:37;;;;;;;19.40;8.65;;;;;;;5.14;62.98;101682.09;5004043;28;20038;-73
2022/01/29 07:53:02;;;;;;;18.80;9.70;;;;;;;5.43;62.38;101677.63;5022431;28;20090;-72
2022/01/29 07:55:31;;;;;;;24.50;9.40;;;;;;;5.52;61.66;101678.44;5020024;28;20124;-73
2022/01/29 07:57:58;;;;;;;21.15;8.35;;;;;;;5.46;62.07;101669.84;5019479;28;20037;-74
2022/01/29 08:00:24;;;;;;;22.45;10.25;;;;;;;4.84;63.79;101674.41;5003313;28;20038;-74
2022/01/29 08:02:49;;;;;;;16.75;8.82;;;;;;;5.12;63.42;101666.53;5005744;28;20037;-73
2022/01/29 08:05:15;;;;;;;17.88;9.75;;;;;;;5.51;62.62;101662.03;5002364;28;20033;-73
2022/01/29 08:07:41;;;;;;;21.45;9.68;;;;;;;5.40;62.51;101661.22;5002414;28;20064;-72
2022/01/29 08:10:07;;;;;;;22.63;9.90;;;;;;;5.27;62.29;101644.88;5005569;28;20037;-73
2022/01/29 08:12:33;;;;;;;17.95;9.60;;;;;;;5.26;62.59;101653.53;5000493;28;20077;-73
2022/01/29 08:14:59;;;;;;;28.80;8.93;;;;;;;5.45;62.24;101646.50;5020611;28;20045;-76
2022/01/29 08:17:24;;;;;;;21.88;9.85;;;;;;;4.55;65.35;101634.78;5004819;28;20049;-76
2022/01/29 08:19:50;;;;;;;18.13;9.95;;;;;;;5.30;63.00;101639.69;4999546;28;20854;-76
2022/01/29 08:22:17;;;;;;;21.60;8.70;;;;;;;5.25;63.04;101631.91;5017028;28;20037;-75
2022/01/29 08:24:43;;;;;;;16.52;8.40;;;;;;;5.51;62.65;101619.69;4984961;28;20406;-76
2022/01/29 08:27:09;;;;;;;20.42;8.18;;;;;;;5.38;62.70;101621.50;5008172;28;20580;-76
2022/01/29 08:29:34;;;;;;;22.02;9.65;;;;;;;5.05;63.69;101625.97;5013402;28;20033;-75
2022/01/29 08:32:00;;;;;;;27.20;8.15;;;;;;;5.19;63.72;101631.97;5020419;28;20052;-73
2022/01/29 08:34:26;;;;;;;17.00;8.07;;;;;;;5.21;63.30;101622.47;5022181;28;20100;-74
2022/01/29 08:36:52;;;;;;;25.77;8.60;;;;;;;5.13;64.09;101624.22;5012003;28;20016;-74
2022/01/29 08:39:18;;;;;;;20.13;8.43;;;;;;;4.87;64.85;101621.72;5020512;28;20508;-74
2022/01/29 08:41:44;;;;;;;17.08;8.77;;;;;;;5.63;62.32;101619.59;5020328;28;20591;-73
2022/01/29 08:44:09;;;;;;;23.35;8.63;;;;;;;5.25;63.33;101618.09;5035179;28;20501;-74
2022/01/29 08:46:35;;;;;;;19.65;8.93;;;;;;;5.44;63.00;101611.94;5023752;28;20066;-74
2022/01/29 08:49:01;;;;;;;14.32;7.88;;;;;;;5.16;63.62;101612.97;5023926;28;20037;-74
2022/01/29 08:51:27;;;;;;;17.95;7.22;;;;;;;5.12;63.27;101606.09;5020515;28;20065;-75
2022/01/29 08:53:53;;;;;;;19.02;8.25;;;;;;;5.55;62.58;101593.72;5022263;28;20132;-74
2022/01/29 08:56:19;;;;;;;19.00;7.57;;;;;;;4.91;64.56;101601.88;5020663;28;20040;-74
2022/01/29 08:58:44;;;;;;;20.50;10.15;;;;;;;5.54;62.50;101599.75;5022443;28;20382;-74
2022/01/29 09:01:11;;;;;;;22.45;9.07;;;;;;;5.56;62.48;101598.03;5020296;28;20125;-74
2022/01/29 09:03:37;;;;;;;25.27;9.38;;;;;;;5.70;61.85;101610.03;5017889;28;20041;-74
2022/01/29 09:06:04;;;;;;;19.95;7.78;;;;;;;5.84;61.25;101590.03;5020698;28;20060;-74
2022/01/29 09:08:31;;;;;;;20.65;8.20;;;;;;;5.42;62.28;101579.13;5018463;28;20073;-74
2022/01/29 09:10:57;;;;;;;24.42;9.02;;;;;;;5.86;61.52;101575.31;5020252;28;20489;-74
2022/01/29 09:13:24;;;;;;;16.08;9.43;;;;;;;5.76;61.77;101566.72;5017996;28;20176;-74
2022/01/29 09:15:50;;;;;;;17.02;7.78;;;;;;;5.69;61.76;101572.00;5018553;28;20037;-74
2022/01/29 09:18:16;;;;;;;11.98;7.07;;;;;;;5.15;63.31;101549.94;5018246;28;20073;-74
2022/01/29 09:20:41;;;;;;;17.92;7.03;;;;;;;5.38;62.42;101559.28;5016816;28;20029;-74
2022/01/29 09:23:08;;;;;;;19.58;7.47;;;;;;;5.79;61.30;101543.38;5019002;28;20040;-73
2022/01/29 09:25:36;;;;;;;11.57;5.47;;;;;;;5.87;60.53;101545.88;5017452;28;20144;-74
2022/01/29 09:28:06;;;;;;;16.33;7.30;;;;;;;5.80;60.52;101537.31;5018402;28;20572;-74
2022/01/29 09:30:33;;;;;;;17.15;6.40;;;;;;;6.06;59.48;101525.78;5024395;28;20505;-74
2022/01/29 09:32:59;;;;;;;9.32;5.20;;;;;;;6.26;59.61;101512.59;5011983;28;20233;-74
2022/01/29 09:35:26;;;;;;;11.90;6.45;;;;;;;5.22;62.04;101510.13;4987729;28;20102;-74
2022/01/29 09:37:53;;;;;;;16.17;5.93;;;;;;;6.52;58.46;101508.88;5009091;28;20427;-75
2022/01/29 09:40:19;;;;;;;13.75;6.22;;;;;;;5.77;60.48;101502.75;5003377;28;20119;-74
2022/01/29 09:42:47;;;;;;;12.68;5.13;;;;;;;5.61;60.29;101492.53;5002433;28;20118;-74
2022/01/29 09:45:15;;;;;;;8.85;4.22;;;;;;;5.84;59.40;101476.75;5011931;28;20116;-74
2022/01/29 09:47:42;;;;;;;14.40;4.97;;;;;;;6.46;58.21;101476.91;4969014;28;20525;-74
2022/01/29 09:50:09;;;;;;;9.30;3.78;;;;;;;5.71;60.26;101469.09;5005550;28;20029;-73
2022/01/29 09:52:35;;;;;;;12.98;3.78;;;;;;;6.14;59.15;101458.25;5030497;28;20069;-74
2022/01/29 09:55:01;;;;;;;14.98;3.58;;;;;;;6.37;58.31;101476.16;5003599;28;20124;-74
2022/01/29 09:57:27;;;;;;;11.93;4.85;;;;;;;6.29;58.54;101471.06;5006282;28;20045;-75
2022/01/29 09:59:53;;;;;;;10.38;3.70;;;;;;;6.13;58.81;101459.97;5003907;28;20043;-75
2022/01/29 10:02:19;;;;;;;6.35;3.83;;;;;;;6.18;58.31;101462.53;5007077;28;20587;-74
2022/01/29 10:05:04;;;;;;;8.95;2.90;;;;;;;6.60;57.60;101455.09;5017677;28;20029;-74
2022/01/29 10:07:32;;;;;;;8.00;3.50;;;;;;;6.08;58.68;101431.50;4994678;28;20044;-74
2022/01/29 10:10:00;;;;;;;11.52;3.67;;;;;;;6.03;59.52;101437.59;5005743;28;20733;-73
2022/01/29 10:12:30;;;;;;;11.30;3.50;;;;;;;5.94;58.79;101423.00;5003406;28;20529;-74
2022/01/29 10:15:05;;;;;;;9.90;2.92;;;;;;;6.11;58.84;101424.56;5010940;28;20033;-74
2022/01/29 10:17:49;;;;;;;7.03;2.83;;;;;;;6.54;57.95;101413.59;5010702;28;20075;-74
2022/01/29 10:20:23;;;;;;;5.22;2.67;;;;;;;5.76;59.43;101420.63;5022089;28;20033;-73
2022/01/29 10:22:51;;;;;;;5.40;2.60;;;;;;;6.38;57.89;101410.38;5013959;28;20045;-74
2022/01/29 10:25:50;;;;;;;4.15;2.38;;;;;;;6.56;57.61;101407.50;5000855;28;20391;-74
2022/01/29 10:28:20;;;;;;;8.98;2.58;;;;;;;6.06;58.69;101396.91;5015478;28;20432;-74
2022/01/29 10:30:49;;;;;;;6.30;2.58;;;;;;;6.56;57.40;101383.28;5026197;28;20040;-74
2022/01/29 10:33:15;;;;;;;6.22;2.80;;;;;;;6.01;59.05;101366.69;4995831;28;20553;-74
2022/01/29 10:35:43;;;;;;;5.55;2.90;;;;;;;6.33;57.92;101392.28;5006749;28;20047;-73
2022/01/29 10:38:08;;;;;;;4.57;2.42;;;;;;;6.38;57.61;101385.25;5004387;28;20041;-74
2022/01/29 10:40:34;;;;;;;7.43;2.50;;;;;;;6.66;57.28;101377.06;5004331;28;20032;-74
2022/01/29 10:43:06;;;;;;;6.15;2.42;;;;;;;6.03;58.66;101380.50;5007149;28;20438;-73
2022/01/29 10:45:34;;;;;;;11.55;2.55;;;;;;;6.42;57.49;101379.16;5001699;28;20158;-73
2022/01/29 10:47:59;;;;;;;5.88;2.17;;;;;;;6.14;58.70;101368.25;5018177;28;20067;-73
2022/01/29 10:50:26;;;;;;;5.60;2.05;;;;;;;6.70;56.89;101384.75;5003231;28;20056;-74
2022/01/29 10:52:52;;;;;;;4.47;2.38;;;;;;;6.27;58.10;101389.72;4985037;28;20388;-74
2022/01/29 10:55:18;;;;;;;4.28;1.90;;;;;;;6.01;59.08;101385.72;5001009;28;20100;-74
2022/01/29 10:57:46;;;;;;;6.43;1.90;;;;;;;6.26;58.42;101385.38;5003048;28;20037;-74
2022/01/29 11:00:15;;;;;;;6.55;2.15;;;;;;;6.15;58.49;101408.03;5011440;28;20040;-74
2022/01/29 11:02:42;;;;;;;6.88;1.92;;;;;;;6.25;58.35;101413.09;5003851;28;20045;-74
2022/01/29 11:05:08;;;;;;;8.73;3.25;;;;;;;6.38;58.06;101424.22;5008920;28;20041;-73
2022/01/29 11:07:36;;;;;;;8.23;2.35;;;;;;;6.05;58.75;101417.69;5000219;28;20045;-74
2022/01/29 11:10:05;;;;;;;6.10;1.80;;;;;;;6.28;58.29;101413.09;5007947;28;20418;-73
2022/01/29 11:12:31;;;;;;;5.10;1.77;;;;;;;6.56;57.38;101396.28;5003889;28;20068;-73
2022/01/29 11:14:59;;;;;;;4.75;2.35;;;;;;;6.50;57.59;101377.28;5009681;28;20041;-73
2022/01/29 11:17:29;;;;;;;4.05;1.65;;;;;;;6.39;57.73;101360.16;5004509;28;20510;-73
2022/01/29 11:19:55;;;;;;;3.17;1.50;;;;;;;6.93;56.09;101354.09;5003183;28;20025;-74
2022/01/29 11:22:27;;;;;;;7.03;1.98;;;;;;;6.27;57.43;101348.19;5013848;28;20036;-74
2022/01/29 11:25:02;;;;;;;6.82;2.38;;;;;;;6.77;56.23;101325.78;5020907;28;20930;-74
2022/01/29 11:27:31;;;;;;;4.95;1.30;;;;;;;6.67;56.54;101347.63;5014104;28;20466;-74
2022/01/29 11:29:59;;;;;;;6.60;1.30;;;;;;;6.62;56.80;101339.00;5002877;28;20094;-73
2022/01/29 11:32:32;;;;;;;6.25;1.17;;;;;;;7.09;55.63;101337.38;5001091;28;20084;-74
2022/01/29 11:35:34;;;;;;;5.43;1.38;;;;;;;7.22;54.75;101310.28;5019956;28;20072;-74